Time;durP1;ratioP1;P1;durP2;ratioP2;P2;SDS_P1;SDS_P2;PMS_P1;PMS_P2;Temp;Humidity;BMP_temperature;BMP_pressure;BME280_temperature;BME280_humidity;BME280_pressure;Samples;Min_cycle;Max_cycle;Signal;HPM_P1;HPM_P2
2023/09/24 00:01:03;;;;;;;26.42;7.30;;;;;;;22.95;40.30;93719.53;5032631;28;20041;-76
2023/09/24 00:03:28;;;;;;;27.50;6.25;;;;;;;22.93;40.78;93717.19;5032772;28;20041;-77
2023/09/24 00:05:54;;;;;;;31.17;7.35;;;;;;;22.81;40.81;93711.41;5022353;28;20120;-76
2023/09/24 00:08:20;;;;;;;21.70;6.32;;;;;;;22.58;41.06;93684.78;5012964;28;20033;-77
2023/09/24 00:10:55;;;;;;;20.02;7.07;;;;;;;22.68;40.99;93700.25;5013103;28;20473;-76
2023/09/24 00:13:22;;;;;;;21.25;6.57;;;;;;;22.72;40.77;93711.84;5010065;28;20315;-76
2023/09/24 00:15:49;;;;;;;29.45;7.40;;;;;;;22.79;40.72;93711.81;5010394;28;20059;-78
2023/09/24 00:18:17;;;;;;;24.67;5.82;;;;;;;22.67;41.01;93704.13;5012993;28;20033;-76
2023/09/24 00:20:42;;;;;;;25.73;5.70;;;;;;;22.68;41.49;93705.66;5011341;28;20025;-76
2023/09/24 00:23:08;;;;;;;20.00;5.50;;;;;;;22.65;41.59;93718.06;5011681;28;20033;-76
2023/09/24 00:25:33;;;;;;;26.73;6.43;;;;;;;22.64;40.99;93713.78;5013366;28;20029;-77
2023/09/24 00:27:59;;;;;;;18.95;5.07;;;;;;;22.62;41.36;93712.66;5011860;28;20037;-77
2023/09/24 00:30:24;;;;;;;31.75;6.95;;;;;;;22.63;40.92;93716.91;5012046;28;20045;-74
2023/09/24 00:32:53;;;;;;;26.33;6.15;;;;;;;22.67;41.57;93721.16;5012578;28;20033;-74
2023/09/24 00:35:19;;;;;;;33.95;6.00;;;;;;;22.55;41.36;93718.06;5015687;28;20489;-75
2023/09/24 00:37:44;;;;;;;26.65;6.18;;;;;;;22.64;40.67;93737.41;5015915;28;20651;-76
2023/09/24 00:40:11;;;;;;;28.05;5.75;;;;;;;22.55;40.87;93745.16;5018389;28;20041;-78
2023/09/24 00:42:37;;;;;;;29.80;5.13;;;;;;;22.51;40.79;93734.34;5011201;28;20409;-76
2023/09/24 00:45:14;;;;;;;16.98;5.10;;;;;;;22.57;40.93;93737.44;5008425;28;20041;-76
2023/09/24 00:47:47;;;;;;;23.40;5.63;;;;;;;22.30;40.40;93721.59;5031169;28;20038;-76
2023/09/24 00:50:13;;;;;;;27.75;6.05;;;;;;;22.31;40.30;93714.25;5007937;28;22017;-77
2023/09/24 00:52:41;;;;;;;24.17;6.45;;;;;;;22.38;41.06;93718.91;5014852;28;20045;-78
2023/09/24 00:55:08;;;;;;;22.15;5.35;;;;;;;22.32;41.31;93715.03;5013525;28;20095;-76
2023/09/24 00:57:35;;;;;;;29.20;5.72;;;;;;;22.42;41.14;93704.19;5013552;28;20125;-77
2023/09/24 01:00:14;;;;;;;32.05;6.95;;;;;;;22.45;41.27;93721.56;5012035;28;20098;-78
2023/09/24 01:02:40;;;;;;;21.40;5.57;;;;;;;22.36;41.31;93694.91;5011471;28;20033;-76
2023/09/24 01:05:10;;;;;;;25.33;6.25;;;;;;;22.44;41.53;93698.38;5012527;28;20118;-77
2023/09/24 01:07:41;;;;;;;34.25;7.18;;;;;;;22.33;41.33;93686.78;5012416;28;20842;-77
2023/09/24 01:10:08;;;;;;;25.15;6.20;;;;;;;22.41;41.68;93691.00;5013638;28;20088;-77
2023/09/24 01:12:34;;;;;;;19.42;5.80;;;;;;;22.49;41.27;93689.81;5009689;28;20570;-77
2023/09/24 01:14:59;;;;;;;22.30;6.63;;;;;;;22.54;41.55;93705.69;5010659;28;20037;-77
2023/09/24 01:17:25;;;;;;;24.00;6.90;;;;;;;22.54;41.41;93697.56;5011337;28;20480;-77
2023/09/24 01:19:55;;;;;;;23.20;5.40;;;;;;;22.54;41.40;93705.69;5015627;28;20029;-78
2023/09/24 01:22:21;;;;;;;22.40;6.13;;;;;;;22.49;41.81;93698.72;5010785;28;20133;-76
2023/09/24 01:24:47;;;;;;;33.00;5.80;;;;;;;22.53;41.89;93704.94;5014806;28;20038;-76
2023/09/24 01:27:13;;;;;;;28.75;7.05;;;;;;;22.51;41.95;93695.63;5025491;28;20455;-77
2023/09/24 01:29:39;;;;;;;25.45;6.47;;;;;;;22.48;41.69;93672.03;5031159;28;20056;-76
2023/09/24 01:32:06;;;;;;;24.20;6.47;;;;;;;22.49;41.68;93676.28;5036828;28;20740;-78
2023/09/24 01:34:34;;;;;;;19.30;5.47;;;;;;;22.43;41.56;93675.16;5033490;28;20028;-77
2023/09/24 01:37:08;;;;;;;18.13;5.78;;;;;;;22.50;42.04;93683.25;5036046;28;20126;-77
2023/09/24 01:39:34;;;;;;;21.00;5.40;;;;;;;22.46;42.03;93679.78;5034410;28;20033;-77
2023/09/24 01:42:01;;;;;;;28.38;6.32;;;;;;;22.55;41.71;93686.31;5029701;28;20063;-77
2023/09/24 01:44:28;;;;;;;16.02;4.88;;;;;;;22.52;42.26;93687.13;5015649;28;20061;-76
2023/09/24 01:46:53;;;;;;;19.45;5.10;;;;;;;22.37;42.13;93663.16;5010387;28;20029;-76
2023/09/24 01:49:19;;;;;;;21.63;6.45;;;;;;;22.43;42.22;93673.22;5012701;28;20100;-78
2023/09/24 01:51:44;;;;;;;23.63;4.85;;;;;;;22.32;42.49;93663.56;5011481;28;20468;-77
2023/09/24 01:54:10;;;;;;;19.58;5.70;;;;;;;22.37;42.21;93671.28;5011505;28;20084;-78
2023/09/24 01:56:36;;;;;;;15.50;5.78;;;;;;;22.34;42.06;93672.81;5006838;28;20470;-77
2023/09/24 01:59:04;;;;;;;23.70;5.45;;;;;;;22.34;41.96;93672.06;5011234;28;20069;-78
2023/09/24 02:01:29;;;;;;;17.25;4.65;;;;;;;22.36;42.13;93667.03;5012021;28;20029;-77
2023/09/24 02:03:59;;;;;;;19.02;6.20;;;;;;;22.34;41.90;93669.38;5010947;28;20033;-77
2023/09/24 02:06:24;;;;;;;19.92;5.47;;;;;;;22.26;42.22;93657.75;5012282;28;20045;-76
2023/09/24 02:08:50;;;;;;;16.92;5.53;;;;;;;22.31;42.12;93676.31;5011855;28;20389;-76
2023/09/24 02:11:15;;;;;;;22.33;5.88;;;;;;;22.25;42.23;93667.81;5013247;28;20465;-75
2023/09/24 02:13:42;;;;;;;18.15;5.90;;;;;;;22.22;42.54;93659.72;5012625;28;20025;-75
2023/09/24 02:16:08;;;;;;;18.05;5.50;;;;;;;22.26;42.68;93679.44;5012475;28;20866;-76
2023/09/24 02:18:34;;;;;;;26.83;6.28;;;;;;;22.12;42.66;93657.75;5011983;28;20119;-78
2023/09/24 02:20:59;;;;;;;22.05;4.78;;;;;;;22.19;42.71;93672.06;5012801;28;20053;-76
2023/09/24 02:23:25;;;;;;;21.23;5.88;;;;;;;22.12;42.80;93663.94;5011190;28;20183;-77
2023/09/24 02:25:51;;;;;;;20.70;4.93;;;;;;;22.24;42.33;93671.69;5012724;28;20017;-78
2023/09/24 02:28:18;;;;;;;19.98;5.68;;;;;;;22.18;42.86;93659.69;5013052;28;20689;-76
2023/09/24 02:30:45;;;;;;;25.02;5.78;;;;;;;22.29;42.30;93671.28;5013549;28;20041;-76
2023/09/24 02:33:10;;;;;;;27.13;5.45;;;;;;;22.25;42.38;93664.34;5012539;28;20041;-77
2023/09/24 02:35:36;;;;;;;20.67;4.97;;;;;;;22.11;42.71;93651.56;5008904;28;20087;-77
2023/09/24 02:38:04;;;;;;;14.85;5.32;;;;;;;22.17;42.62;93660.84;5007970;28;20029;-78
2023/09/24 02:40:30;;;;;;;21.08;6.18;;;;;;;22.32;42.51;93685.22;5008210;28;20280;-78
2023/09/24 02:42:57;;;;;;;20.63;5.28;;;;;;;22.24;42.85;93687.94;5011402;28;20030;-77
2023/09/24 02:45:23;;;;;;;20.90;6.00;;;;;;;22.13;43.10;93676.34;5011546;28;20128;-77
2023/09/24 02:47:49;;;;;;;29.30;6.47;;;;;;;22.10;43.28;93687.16;5014165;28;20083;-76
2023/09/24 02:50:15;;;;;;;28.42;7.53;;;;;;;22.13;42.89;93675.56;5010230;28;20348;-78
2023/09/24 02:52:48;;;;;;;26.83;7.30;;;;;;;22.16;43.00;93675.56;5011032;28;20033;-78
2023/09/24 02:55:14;;;;;;;22.55;5.68;;;;;;;22.12;43.14;93677.50;5011553;28;20429;-77
2023/09/24 02:57:40;;;;;;;20.58;5.28;;;;;;;22.06;42.47;93665.50;5026167;28;20303;-77
2023/09/24 03:00:17;;;;;;;16.02;6.03;;;;;;;22.07;42.81;93663.56;5021840;28;20033;-76
2023/09/24 03:02:44;;;;;;;27.27;5.38;;;;;;;22.08;42.45;93671.31;5015420;28;20057;-78
2023/09/24 03:05:11;;;;;;;24.48;4.63;;;;;;;22.13;42.67;93676.34;5010715;28;20468;-76
2023/09/24 03:07:38;;;;;;;20.83;5.05;;;;;;;22.02;43.13;93653.13;5010338;28;20017;-77
2023/09/24 03:10:07;;;;;;;22.08;6.00;;;;;;;22.12;42.65;93663.94;5012732;28;20067;-76
2023/09/24 03:12:34;;;;;;;20.88;4.80;;;;;;;22.08;43.49;93679.44;5016774;28;20038;-77
2023/09/24 03:15:01;;;;;;;21.67;6.63;;;;;;;22.05;42.66;93679.41;5012453;28;20068;-76
2023/09/24 03:17:27;;;;;;;25.27;5.95;;;;;;;21.88;43.72;93665.53;5014161;28;20065;-76
2023/09/24 03:19:52;;;;;;;21.20;5.47;;;;;;;21.95;42.99;93674.81;5010813;28;20757;-78
2023/09/24 03:22:18;;;;;;;22.17;5.65;;;;;;;21.90;43.15;93667.09;5013905;28;20053;-77
2023/09/24 03:24:43;;;;;;;20.10;4.75;;;;;;;21.77;43.24;93653.16;5026885;28;20690;-77
2023/09/24 03:27:09;;;;;;;24.30;6.22;;;;;;;21.90;43.43;93684.09;5023502;28;20029;-76
2023/09/24 03:29:34;;;;;;;22.17;6.60;;;;;;;21.83;43.47;93673.25;5011414;28;20065;-78
2023/09/24 03:32:00;;;;;;;19.27;5.05;;;;;;;21.82;43.29;93691.44;5014185;28;20021;-77
2023/09/24 03:34:26;;;;;;;16.73;5.93;;;;;;;21.71;43.68;93692.59;5012446;28;20029;-77
2023/09/24 03:36:51;;;;;;;19.55;6.05;;;;;;;21.66;44.17;93695.66;5013755;28;20034;-76
2023/09/24 03:39:16;;;;;;;25.70;5.47;;;;;;;21.66;44.07;93684.84;5017816;28;20106;-77
2023/09/24 03:41:42;;;;;;;17.08;5.47;;;;;;;21.58;44.53;93672.47;5013294;28;20036;-78
2023/09/24 03:44:07;;;;;;;24.13;5.80;;;;;;;21.64;44.20;93690.66;5011163;28;20540;-76
2023/09/24 03:46:33;;;;;;;19.38;5.07;;;;;;;21.58;44.40;93680.59;5011248;28;20037;-77
2023/09/24 03:48:58;;;;;;;19.27;6.07;;;;;;;21.63;44.28;93681.00;5008969;28;20037;-77
2023/09/24 03:51:24;;;;;;;23.85;5.55;;;;;;;21.67;44.24;93697.22;5010814;28;20576;-77
2023/09/24 03:53:49;;;;;;;16.95;5.03;;;;;;;21.62;44.61;93697.59;5008983;28;20129;-75
2023/09/24 03:56:17;;;;;;;20.67;5.30;;;;;;;21.54;44.47;93694.09;5010003;28;20050;-77
2023/09/24 03:58:42;;;;;;;23.15;5.15;;;;;;;21.52;44.37;93695.63;5012187;28;20591;-76
2023/09/24 04:01:12;;;;;;;19.85;5.47;;;;;;;21.52;44.74;93696.41;5010604;28;20038;-76
2023/09/24 04:29:32;;;;;;;25.95;7.00;;;;;;;20.94;44.84;93756.13;5065854;28;20507;-77
2023/09/24 04:31:58;;;;;;;21.63;5.97;;;;;;;20.75;45.18;93764.50;5085682;28;20044;-78
2023/09/24 04:34:24;;;;;;;20.98;7.28;;;;;;;20.56;45.55;93755.53;5085776;27;20076;-78
2023/09/24 04:36:50;;;;;;;25.13;6.53;;;;;;;20.63;46.00;93764.84;5087033;28;20039;-77
2023/09/24 04:39:15;;;;;;;22.48;7.78;;;;;;;20.62;46.02;93755.94;5084686;28;20044;-77
2023/09/24 04:41:43;;;;;;;23.40;6.45;;;;;;;20.62;46.02;93752.47;5083616;27;20040;-77
2023/09/24 04:44:08;;;;;;;23.25;5.82;;;;;;;20.74;45.95;93768.34;5086191;28;20044;-77
2023/09/24 04:46:35;;;;;;;19.35;6.45;;;;;;;20.69;45.77;93774.13;5083427;28;20032;-77
2023/09/24 04:49:04;;;;;;;21.95;6.95;;;;;;;20.69;45.93;93769.50;5116634;27;20115;-74
2023/09/24 04:51:30;;;;;;;18.15;7.45;;;;;;;20.77;46.20;93781.13;5085676;28;20024;-77
2023/09/24 04:53:56;;;;;;;28.23;6.45;;;;;;;20.65;46.99;93749.00;5084258;27;20036;-77
2023/09/24 04:56:21;;;;;;;19.70;6.07;;;;;;;20.84;46.70;93775.75;5034219;28;20091;-78
2023/09/24 04:58:47;;;;;;;24.10;6.75;;;;;;;20.72;47.37;93757.94;4999315;28;20030;-79
2023/09/24 05:01:12;;;;;;;27.08;6.43;;;;;;;20.94;47.43;93777.75;5001671;28;20029;-77
2023/09/24 05:03:38;;;;;;;18.10;5.70;;;;;;;20.83;47.28;93758.75;4999923;28;20396;-77
2023/09/24 05:06:04;;;;;;;20.27;6.85;;;;;;;20.98;47.17;93773.13;5002199;28;20046;-78
2023/09/24 05:08:31;;;;;;;22.38;5.88;;;;;;;20.89;46.91;93759.19;4999589;28;20034;-77
2023/09/24 05:10:56;;;;;;;22.90;6.97;;;;;;;21.00;46.51;93758.09;5033317;28;20076;-76
2023/09/24 05:13:22;;;;;;;24.60;7.10;;;;;;;20.95;47.09;93752.28;4998776;28;20034;-78
2023/09/24 05:15:53;;;;;;;16.42;5.60;;;;;;;21.06;46.43;93755.81;5004380;28;20547;-77
2023/09/24 05:18:22;;;;;;;15.85;6.35;;;;;;;21.06;47.14;93750.41;4999704;28;20034;-79
2023/09/24 05:20:48;;;;;;;24.20;6.53;;;;;;;21.12;46.82;93754.25;5098005;28;20063;-78
2023/09/24 05:23:13;;;;;;;27.13;7.22;;;;;;;21.21;47.49;93762.81;5103693;27;20032;-78
2023/09/24 05:25:40;;;;;;;17.15;5.32;;;;;;;21.13;47.80;93749.63;5104376;27;20027;-79
2023/09/24 05:28:06;;;;;;;22.48;7.47;;;;;;;21.25;48.29;93777.13;5102377;27;20047;-78
2023/09/24 05:30:31;;;;;;;18.42;6.47;;;;;;;21.31;47.91;93770.19;5090277;27;20042;-78
2023/09/24 05:32:56;;;;;;;15.85;6.80;;;;;;;21.26;48.39;93765.16;5089213;27;20711;-77
2023/09/24 05:35:22;;;;;;;22.65;6.00;;;;;;;21.32;48.06;93779.06;5090881;28;20039;-79
2023/09/24 05:37:48;;;;;;;15.38;6.32;;;;;;;21.36;48.60;93782.56;5092299;28;20492;-78
2023/09/24 05:40:14;;;;;;;19.25;5.72;;;;;;;21.43;47.71;93780.66;5091684;27;20023;-77
2023/09/24 05:42:42;;;;;;;23.55;6.53;;;;;;;21.56;46.97;93788.47;5091329;28;20038;-77
2023/09/24 05:45:09;;;;;;;33.50;6.80;;;;;;;21.49;47.19;93772.16;5088167;28;20066;-79
2023/09/24 05:47:34;;;;;;;27.33;8.23;;;;;;;21.43;47.33;93774.47;5089191;28;20122;-79
2023/09/24 05:50:02;;;;;;;17.17;6.50;;;;;;;21.55;46.98;93789.63;5091187;28;20039;-79
2023/09/24 05:52:27;;;;;;;28.35;7.65;;;;;;;21.56;46.84;93774.94;5092652;28;20061;-78
2023/09/24 05:54:53;;;;;;;21.65;6.70;;;;;;;21.71;46.56;93782.69;5091214;28;20630;-78
2023/09/24 05:57:18;;;;;;;29.17;7.68;;;;;;;21.66;46.51;93774.16;5089286;28;20043;-78
2023/09/24 05:59:44;;;;;;;20.17;6.75;;;;;;;21.79;46.21;93788.88;5089311;28;20035;-78
2023/09/24 06:02:09;;;;;;;18.95;6.72;;;;;;;21.76;45.81;93781.53;5088961;28;20039;-78
2023/09/24 06:04:34;;;;;;;26.70;7.50;;;;;;;21.76;46.25;93784.22;5090304;28;20052;-79
2023/09/24 06:07:00;;;;;;;21.02;6.55;;;;;;;21.83;46.09;93782.31;5089222;28;20023;-78
2023/09/24 06:09:30;;;;;;;28.42;7.07;;;;;;;21.99;45.08;93795.50;5090153;28;20026;-78
2023/09/24 06:11:55;;;;;;;19.17;7.82;;;;;;;22.04;44.78;93787.00;5099114;27;20020;-79
2023/09/24 06:14:22;;;;;;;26.40;6.28;;;;;;;22.08;45.26;93797.81;5089996;28;20043;-79
2023/09/24 06:16:47;;;;;;;25.65;7.43;;;;;;;22.06;45.95;93795.50;5086244;28;20530;-78
2023/09/24 06:19:13;;;;;;;20.85;6.63;;;;;;;22.07;46.13;93797.03;5089784;28;20020;-79
2023/09/24 06:21:38;;;;;;;23.27;6.07;;;;;;;22.08;45.30;93778.84;5090273;28;20024;-79
2023/09/24 06:24:06;;;;;;;25.88;5.78;;;;;;;22.16;45.94;93792.00;5093637;28;20595;-80
2023/09/24 06:26:31;;;;;;;20.77;6.90;;;;;;;22.23;46.38;93789.34;5124479;27;20036;-81
2023/09/24 06:28:58;;;;;;;22.80;6.18;;;;;;;22.30;46.26;93786.63;5122124;27;20103;-80
2023/09/24 06:31:24;;;;;;;17.38;7.22;;;;;;;22.29;46.45;93771.53;5090099;28;20039;-82
2023/09/24 06:33:49;;;;;;;21.98;5.80;;;;;;;22.39;45.81;93786.22;5093642;28;20028;-82
2023/09/24 06:36:16;;;;;;;17.52;6.38;;;;;;;22.23;46.51;93778.50;5094877;28;20733;-82
2023/09/24 06:38:41;;;;;;;19.98;6.47;;;;;;;22.35;46.50;93790.09;5092176;28;20039;-82
2023/09/24 06:41:11;;;;;;;14.68;6.38;;;;;;;22.49;45.92;93790.09;5080891;28;20124;-80
2023/09/24 06:43:36;;;;;;;18.40;6.32;;;;;;;22.46;45.85;93774.63;5090791;28;20062;-80
2023/09/24 06:46:06;;;;;;;14.13;6.57;;;;;;;22.56;45.58;93795.50;5080425;28;20028;-80
2023/09/24 06:48:31;;;;;;;20.90;6.70;;;;;;;22.38;46.05;93778.50;5082652;28;20087;-79
2023/09/24 06:51:06;;;;;;;17.52;6.30;;;;;;;22.61;45.38;93787.75;5079135;27;20052;-79
2023/09/24 06:53:36;;;;;;;16.55;5.97;;;;;;;22.61;44.96;93776.16;5115628;27;20050;-79
2023/09/24 06:56:14;;;;;;;21.70;6.88;;;;;;;22.66;45.35;93787.38;5080724;28;20118;-80
2023/09/24 06:58:57;;;;;;;25.52;6.15;;;;;;;22.70;45.28;93785.41;5085366;28;20036;-80
2023/09/24 07:01:23;;;;;;;21.33;6.93;;;;;;;22.75;45.70;93778.81;5087850;28;20043;-79
2023/09/24 07:03:54;;;;;;;20.75;5.95;;;;;;;22.93;45.31;93790.41;5077666;28;20028;-79
2023/09/24 07:06:22;;;;;;;26.83;6.53;;;;;;;22.77;45.78;93776.50;5087261;28;20047;-79
2023/09/24 07:08:50;;;;;;;24.33;5.85;;;;;;;22.84;45.98;93776.47;5080077;27;20044;-78
2023/09/24 07:11:40;;;;;;;16.05;6.75;;;;;;;22.91;45.45;93789.28;5071939;27;20046;-79
2023/09/24 07:14:06;;;;;;;21.98;6.22;;;;;;;22.94;45.65;93794.69;5082762;27;20063;-80
2023/09/24 07:16:33;;;;;;;22.70;6.35;;;;;;;22.83;46.10;93785.75;5084523;28;20051;-79
2023/09/24 07:18:59;;;;;;;24.80;6.30;;;;;;;23.03;45.89;93784.19;5078899;28;20077;-78
2023/09/24 07:21:34;;;;;;;24.83;8.25;;;;;;;23.17;45.16;93778.72;5081259;28;20019;-79
2023/09/24 07:24:03;;;;;;;18.02;6.72;;;;;;;22.73;45.07;93762.19;5095732;27;20495;-79
2023/09/24 07:26:52;;;;;;;19.55;6.50;;;;;;;22.79;45.50;93782.28;5079558;28;20048;-78
2023/09/24 07:29:23;;;;;;;20.13;6.18;;;;;;;23.00;45.59;93785.00;5076565;28;20043;-80
2023/09/24 07:31:48;;;;;;;18.40;6.70;;;;;;;23.30;45.15;93802.72;5088007;28;20031;-81
2023/09/24 07:34:14;;;;;;;16.00;6.63;;;;;;;23.22;45.31;93785.69;5075484;28;20024;-81
2023/09/24 07:36:39;;;;;;;17.08;6.30;;;;;;;23.05;45.39;93773.75;5091207;28;20657;-81
2023/09/24 07:39:04;;;;;;;20.27;7.20;;;;;;;23.29;44.93;93782.94;5088195;28;20052;-81
2023/09/24 07:41:30;;;;;;;20.40;6.88;;;;;;;23.13;44.75;93779.91;5085130;28;20536;-81
2023/09/24 07:43:55;;;;;;;16.42;6.07;;;;;;;23.33;44.27;93780.22;5087753;28;20036;-80
2023/09/24 07:46:21;;;;;;;22.17;8.10;;;;;;;23.48;44.58;93797.97;5089649;28;20035;-80
2023/09/24 07:48:48;;;;;;;13.82;7.13;;;;;;;23.55;44.65;93796.03;5086172;28;20038;-81
2023/09/24 07:51:16;;;;;;;20.80;7.72;;;;;;;23.52;45.00;93780.53;5088944;28;20054;-81
2023/09/24 07:53:42;;;;;;;32.13;8.63;;;;;;;23.60;44.59;93778.56;5084279;28;20078;-81
2023/09/24 07:56:09;;;;;;;17.17;7.18;;;;;;;23.74;44.37;93794.78;5087285;28;20518;-81
2023/09/24 07:58:35;;;;;;;18.30;7.18;;;;;;;23.61;44.70;93755.69;5076007;27;20042;-81
2023/09/24 08:01:08;;;;;;;21.77;7.93;;;;;;;23.80;44.84;93773.41;5096583;27;20672;-81
2023/09/24 08:03:39;;;;;;;18.17;7.28;;;;;;;23.79;44.83;93778.06;5110997;27;20023;-80
2023/09/24 08:06:07;;;;;;;26.75;8.15;;;;;;;23.88;45.05;93775.69;5082486;28;20107;-82
2023/09/24 08:08:34;;;;;;;20.98;6.90;;;;;;;23.73;45.04;93757.94;5081456;28;20355;-81
2023/09/24 08:11:00;;;;;;;21.33;8.02;;;;;;;23.93;44.13;93780.69;5082317;28;20441;-80
2023/09/24 08:13:28;;;;;;;19.25;7.85;;;;;;;23.93;44.33;93769.03;5081041;28;20630;-80
2023/09/24 08:15:57;;;;;;;15.90;6.90;;;;;;;23.98;44.63;93771.34;5086900;28;20376;-80
2023/09/24 08:18:23;;;;;;;23.25;7.95;;;;;;;24.05;44.33;93762.38;5084040;28;20032;-81
2023/09/24 08:20:49;;;;;;;23.70;6.90;;;;;;;24.13;43.86;93759.22;5084473;28;20434;-81
2023/09/24 08:23:15;;;;;;;19.55;8.63;;;;;;;24.10;44.39;93743.69;5083593;28;20035;-81
2023/09/24 08:25:40;;;;;;;16.70;7.75;;;;;;;24.08;44.35;93745.25;5084735;28;20036;-81
2023/09/24 08:28:07;;;;;;;23.58;8.05;;;;;;;24.06;44.59;93753.81;5087708;28;20060;-81
2023/09/24 08:30:33;;;;;;;28.98;7.53;;;;;;;24.07;43.66;93732.84;5087820;28;20024;-82
2023/09/24 08:32:59;;;;;;;18.80;6.85;;;;;;;24.30;44.67;93746.66;5086513;28;20036;-82
2023/09/24 08:35:26;;;;;;;20.65;6.88;;;;;;;24.33;44.23;93735.78;5086229;28;20040;-82
2023/09/24 08:37:53;;;;;;;24.60;7.15;;;;;;;24.35;43.73;93733.41;5085386;28;20042;-81
2023/09/24 08:40:19;;;;;;;21.98;7.20;;;;;;;24.53;43.27;93746.84;5084232;28;20032;-82
2023/09/24 08:42:50;;;;;;;16.65;7.07;;;;;;;24.39;43.62;93728.69;5086776;28;20024;-81
2023/09/24 08:45:26;;;;;;;27.50;7.07;;;;;;;24.43;43.18;93740.34;5102913;28;20570;-82
2023/09/24 08:47:54;;;;;;;24.67;7.07;;;;;;;24.47;42.64;93729.44;5084936;28;20042;-81
2023/09/24 08:50:20;;;;;;;22.20;7.65;;;;;;;24.48;42.74;93730.97;5083295;28;20036;-81
2023/09/24 08:52:46;;;;;;;26.88;8.05;;;;;;;24.30;42.36;93725.69;5084863;28;20413;-82
2023/09/24 08:55:13;;;;;;;20.08;7.20;;;;;;;24.43;41.59;93734.13;5086287;28;20074;-82
2023/09/24 08:57:40;;;;;;;27.90;8.20;;;;;;;24.54;41.32;93728.59;5118652;27;20026;-82
2023/09/24 09:00:09;;;;;;;23.70;6.00;;;;;;;24.61;41.24;93729.28;5084795;28;20036;-81
2023/09/24 09:02:35;;;;;;;22.33;7.55;;;;;;;24.41;41.84;93717.44;5088423;28;20040;-81
2023/09/24 09:05:04;;;;;;;21.60;6.32;;;;;;;24.55;42.24;93717.28;5090922;28;20137;-82
2023/09/24 09:07:30;;;;;;;18.17;5.78;;;;;;;24.65;42.03;93715.63;5091640;28;20035;-81
2023/09/24 09:09:59;;;;;;;21.45;6.82;;;;;;;23.92;41.86;93635.19;5089665;28;20444;-81
2023/09/24 09:12:26;;;;;;;21.25;6.95;;;;;;;24.53;41.27;93730.53;5092168;28;20127;-82
2023/09/24 09:14:52;;;;;;;22.33;5.93;;;;;;;24.56;41.49;93716.13;5096845;28;20578;-82
2023/09/24 09:17:18;;;;;;;24.35;6.50;;;;;;;24.76;41.26;93730.72;5089678;28;20105;-81
2023/09/24 09:19:56;;;;;;;21.08;6.13;;;;;;;24.72;41.31;93719.09;5089606;28;20035;-82
2023/09/24 09:22:27;;;;;;;21.20;5.65;;;;;;;24.88;41.18;93731.38;5088817;28;20458;-81
2023/09/24 09:25:05;;;;;;;28.50;6.85;;;;;;;24.90;41.21;93729.00;5089145;28;20028;-82
2023/09/24 09:27:39;;;;;;;19.83;5.60;;;;;;;24.74;40.78;93714.00;5091604;28;20233;-82
2023/09/24 09:30:15;;;;;;;20.92;6.90;;;;;;;24.96;42.15;93730.09;5095291;28;20059;-81
2023/09/24 09:32:45;;;;;;;17.80;6.13;;;;;;;24.97;41.53;93724.25;5089038;28;20117;-81
2023/09/24 09:35:11;;;;;;;22.73;6.20;;;;;;;24.97;41.03;93728.94;5093148;28;20046;-83
2023/09/24 09:37:41;;;;;;;26.70;7.30;;;;;;;24.99;41.43;93724.59;5086258;28;20582;-82
2023/09/24 09:40:08;;;;;;;21.33;6.20;;;;;;;24.87;41.31;93710.78;5090629;27;20093;-82
2023/09/24 09:42:34;;;;;;;20.98;7.50;;;;;;;25.09;40.75;93733.81;5087126;28;20118;-81
2023/09/24 09:45:09;;;;;;;29.02;7.00;;;;;;;24.94;42.23;93699.81;5089353;28;20050;-81
2023/09/24 09:47:48;;;;;;;22.33;5.80;;;;;;;25.10;40.86;93730.72;5087126;28;20068;-81
2023/09/24 09:50:20;;;;;;;20.70;6.72;;;;;;;25.13;40.81;93740.00;5084771;28;20072;-80
2023/09/24 09:52:51;;;;;;;28.77;6.68;;;;;;;25.13;40.62;93742.72;5090650;28;20837;-80
2023/09/24 09:55:17;;;;;;;20.50;7.25;;;;;;;25.13;40.67;93734.53;5113234;27;20311;-79
2023/09/24 09:57:43;;;;;;;27.67;8.43;;;;;;;25.18;40.69;93745.75;5105124;27;20122;-81
2023/09/24 10:00:10;;;;;;;15.93;6.68;;;;;;;25.17;40.08;93738.03;5086897;28;20048;-81
2023/09/24 10:02:41;;;;;;;18.83;5.80;;;;;;;25.25;41.08;93734.03;5092931;28;20031;-81
2023/09/24 10:05:08;;;;;;;22.52;5.63;;;;;;;25.41;42.07;93744.34;5088444;28;20032;-81
2023/09/24 10:07:37;;;;;;;23.17;6.50;;;;;;;25.28;40.87;93739.41;5093493;28;20057;-80
2023/09/24 10:10:31;;;;;;;17.40;5.70;;;;;;;25.30;40.49;93744.47;5090340;28;20028;-80
2023/09/24 10:13:02;;;;;;;21.42;6.10;;;;;;;25.24;40.41;93727.81;5090476;28;20132;-79
2023/09/24 10:15:30;;;;;;;19.33;6.53;;;;;;;25.33;40.22;93737.44;5078632;28;20040;-79
2023/09/24 10:18:19;;;;;;;16.85;6.72;;;;;;;25.34;40.12;93731.59;5082861;27;20059;-80
2023/09/24 10:20:50;;;;;;;19.05;7.57;;;;;;;25.44;40.73;93735.34;5101808;27;20043;-81
2023/09/24 10:23:32;;;;;;;22.08;6.57;;;;;;;25.39;41.30;93728.44;5084895;28;20046;-79
2023/09/24 10:26:00;;;;;;;20.63;5.72;;;;;;;25.42;41.52;93718.69;5081183;28;20328;-79
2023/09/24 10:28:49;;;;;;;20.45;6.53;;;;;;;25.47;40.56;93729.84;5079972;28;20051;-79
2023/09/24 10:31:17;;;;;;;21.40;6.90;;;;;;;25.53;40.70;93732.91;5079120;28;20234;-79
2023/09/24 10:33:59;;;;;;;19.80;6.93;;;;;;;25.58;40.42;93732.44;5117273;27;20024;-80
2023/09/24 10:36:31;;;;;;;14.57;6.13;;;;;;;25.56;40.81;93732.09;5083396;28;20115;-80
2023/09/24 10:39:13;;;;;;;15.40;6.10;;;;;;;25.56;40.93;93711.09;5079367;28;20042;-81
2023/09/24 10:42:10;;;;;;;21.65;6.70;;;;;;;25.36;40.14;93723.03;5077456;27;20054;-81
2023/09/24 10:44:39;;;;;;;17.15;5.97;;;;;;;25.47;41.29;93718.97;5081857;28;20040;-80
2023/09/24 10:47:41;;;;;;;11.88;5.18;;;;;;;25.52;41.01;93710.34;5086172;28;20139;-80
2023/09/24 10:50:15;;;;;;;17.13;5.97;;;;;;;25.29;41.24;93686.53;5061806;28;20556;-82
2023/09/24 10:52:58;;;;;;;22.42;6.38;;;;;;;25.29;40.50;93712.97;5087463;28;20132;-79
2023/09/24 10:55:30;;;;;;;19.77;6.67;;;;;;;25.36;41.06;93710.19;5080809;28;20376;-81
2023/09/24 10:58:09;;;;;;;17.55;5.28;;;;;;;25.25;40.63;93696.69;5078062;28;20042;-80
2023/09/24 11:00:35;;;;;;;16.27;7.35;;;;;;;25.45;41.47;93696.06;5081538;28;20640;-79
2023/09/24 11:03:05;;;;;;;15.07;6.35;;;;;;;25.55;41.95;93698.66;5074003;28;20651;-82
2023/09/24 11:05:40;;;;;;;20.77;7.10;;;;;;;25.42;40.34;93705.81;5080723;28;20043;-80
2023/09/24 11:08:06;;;;;;;18.75;7.10;;;;;;;25.49;40.31;93700.28;5079760;28;20500;-79
2023/09/24 11:10:32;;;;;;;28.75;7.30;;;;;;;25.38;40.43;93683.31;5079095;28;20039;-80
2023/09/24 11:13:02;;;;;;;27.85;8.50;;;;;;;25.56;40.38;93694.75;5081251;28;20042;-81
2023/09/24 11:15:31;;;;;;;23.65;7.60;;;;;;;25.35;39.93;93688.81;5081912;28;20043;-80
2023/09/24 11:17:57;;;;;;;22.40;7.40;;;;;;;25.19;40.49;93667.63;5080064;28;20766;-81
2023/09/24 11:20:23;;;;;;;22.80;9.52;;;;;;;25.14;40.53;93678.94;5079777;28;20028;-79
2023/09/24 11:23:05;;;;;;;27.23;10.60;;;;;;;25.36;40.43;93682.97;5081138;27;20067;-81
2023/09/24 11:25:31;;;;;;;17.70;8.50;;;;;;;25.47;41.34;93691.75;5076374;28;20043;-80
2023/09/24 11:28:00;;;;;;;15.80;7.57;;;;;;;25.52;40.33;93694.00;5081130;28;20089;-81
2023/09/24 11:30:40;;;;;;;18.08;6.40;;;;;;;25.50;40.01;93701.84;5080295;28;20317;-82
2023/09/24 11:33:23;;;;;;;21.63;5.80;;;;;;;25.53;40.26;93690.09;5083537;27;20071;-82
2023/09/24 11:35:50;;;;;;;18.33;6.00;;;;;;;25.59;40.07;93687.69;5084344;28;20435;-80
2023/09/24 11:38:28;;;;;;;20.70;7.13;;;;;;;25.73;40.42;93703.06;5080357;28;20036;-82
2023/09/24 11:41:06;;;;;;;18.02;6.70;;;;;;;25.77;39.80;93703.75;5079786;28;20032;-81
2023/09/24 11:43:32;;;;;;;18.92;5.63;;;;;;;25.84;39.65;93707.16;5080298;28;20043;-82
2023/09/24 11:45:57;;;;;;;16.17;6.90;;;;;;;25.87;40.77;93703.59;5079159;28;20043;-81
2023/09/24 11:48:25;;;;;;;21.00;6.13;;;;;;;25.92;39.57;93718.75;5080710;28;20642;-80
2023/09/24 11:51:00;;;;;;;15.43;5.90;;;;;;;25.57;39.80;93707.16;5076973;28;20518;-82
2023/09/24 11:53:27;;;;;;;22.63;5.93;;;;;;;25.67;39.52;93711.69;5082645;28;20086;-79
2023/09/24 11:55:55;;;;;;;24.80;6.70;;;;;;;25.60;39.08;93690.03;5078092;27;20558;-82